sensor_id;sensor_type;location;lat;lon;timestamp;temperature;humidity
46816;DHT22;32787;53.316;8.670;2023-02-21T00:00:16;9.50;93.90
46816;DHT22;32787;53.316;8.670;2023-02-21T00:03:00;9.50;93.90
46816;DHT22;32787;53.316;8.670;2023-02-21T00:05:44;9.50;93.90
46816;DHT22;32787;53.316;8.670;2023-02-21T00:08:28;9.40;93.90
46816;DHT22;32787;53.316;8.670;2023-02-21T00:11:12;9.50;93.80
46816;DHT22;32787;53.316;8.670;2023-02-21T00:13:56;9.50;93.80
46816;DHT22;32787;53.316;8.670;2023-02-21T00:16:41;9.50;93.80
46816;DHT22;32787;53.316;8.670;2023-02-21T00:19:25;9.50;93.80
46816;DHT22;32787;53.316;8.670;2023-02-21T00:22:09;9.50;93.80
46816;DHT22;32787;53.316;8.670;2023-02-21T00:24:53;9.50;93.80
46816;DHT22;32787;53.316;8.670;2023-02-21T00:27:38;9.50;93.80
46816;DHT22;32787;53.316;8.670;2023-02-21T00:30:22;9.50;93.70
46816;DHT22;32787;53.316;8.670;2023-02-21T00:33:06;9.50;93.80
46816;DHT22;32787;53.316;8.670;2023-02-21T00:35:50;9.50;93.80
46816;DHT22;32787;53.316;8.670;2023-02-21T00:38:36;9.50;93.90
46816;DHT22;32787;53.316;8.670;2023-02-21T00:41:21;9.50;93.90
46816;DHT22;32787;53.316;8.670;2023-02-21T00:44:05;9.40;94.00
46816;DHT22;32787;53.316;8.670;2023-02-21T00:46:49;9.40;94.00
46816;DHT22;32787;53.316;8.670;2023-02-21T00:49:34;9.40;94.10
46816;DHT22;32787;53.316;8.670;2023-02-21T00:52:18;9.40;94.10
46816;DHT22;32787;53.316;8.670;2023-02-21T00:55:02;9.50;94.20
46816;DHT22;32787;53.316;8.670;2023-02-21T00:57:46;9.40;94.10
46816;DHT22;32787;53.316;8.670;2023-02-21T01:00:30;9.40;94.20
46816;DHT22;32787;53.316;8.670;2023-02-21T01:03:15;9.40;94.20
46816;DHT22;32787;53.316;8.670;2023-02-21T01:05:59;9.40;94.20
46816;DHT22;32787;53.316;8.670;2023-02-21T01:08:44;9.40;94.20
46816;DHT22;32787;53.316;8.670;2023-02-21T01:11:29;9.40;94.10
46816;DHT22;32787;53.316;8.670;2023-02-21T01:14:13;9.40;94.20
46816;DHT22;32787;53.316;8.670;2023-02-21T01:16:58;9.40;94.30
46816;DHT22;32787;53.316;8.670;2023-02-21T01:19:42;9.40;94.20
46816;DHT22;32787;53.316;8.670;2023-02-21T01:22:26;9.40;94.20
46816;DHT22;32787;53.316;8.670;2023-02-21T01:25:11;9.40;94.30
46816;DHT22;32787;53.316;8.670;2023-02-21T01:27:55;9.30;94.20
46816;DHT22;32787;53.316;8.670;2023-02-21T01:30:39;9.40;94.30
46816;DHT22;32787;53.316;8.670;2023-02-21T01:33:23;9.30;94.30
46816;DHT22;32787;53.316;8.670;2023-02-21T01:36:08;9.40;94.30
46816;DHT22;32787;53.316;8.670;2023-02-21T01:38:53;9.40;94.30
46816;DHT22;32787;53.316;8.670;2023-02-21T01:41:37;9.40;94.20
46816;DHT22;32787;53.316;8.670;2023-02-21T01:47:21;9.40;94.20
46816;DHT22;32787;53.316;8.670;2023-02-21T01:50:17;9.30;94.20
46816;DHT22;32787;53.316;8.670;2023-02-21T01:53:07;9.30;94.30
46816;DHT22;32787;53.316;8.670;2023-02-21T01:55:53;9.30;94.30
46816;DHT22;32787;53.316;8.670;2023-02-21T01:58:38;9.30;94.40
46816;DHT22;32787;53.316;8.670;2023-02-21T02:01:30;9.30;94.30
46816;DHT22;32787;53.316;8.670;2023-02-21T02:04:16;9.30;94.30
46816;DHT22;32787;53.316;8.670;2023-02-21T02:07:01;9.30;94.30
46816;DHT22;32787;53.316;8.670;2023-02-21T02:09:45;9.30;94.40
46816;DHT22;32787;53.316;8.670;2023-02-21T02:32:49;9.30;94.60
46816;DHT22;32787;53.316;8.670;2023-02-21T02:35:35;9.30;94.60
46816;DHT22;32787;53.316;8.670;2023-02-21T02:38:27;9.30;94.60
46816;DHT22;32787;53.316;8.670;2023-02-21T02:41:07;9.30;94.50
46816;DHT22;32787;53.316;8.670;2023-02-21T02:43:49;9.30;94.40
46816;DHT22;32787;53.316;8.670;2023-02-21T02:46:22;9.30;94.40
46816;DHT22;32787;53.316;8.670;2023-02-21T02:48:54;9.30;94.40
46816;DHT22;32787;53.316;8.670;2023-02-21T02:51:22;9.40;94.30
46816;DHT22;32787;53.316;8.670;2023-02-21T02:53:48;9.30;94.30
46816;DHT22;32787;53.316;8.670;2023-02-21T02:56:15;9.30;94.20
46816;DHT22;32787;53.316;8.670;2023-02-21T02:59:10;9.30;94.30
46816;DHT22;32787;53.316;8.670;2023-02-21T03:12:51;9.40;94.40
46816;DHT22;32787;53.316;8.670;2023-02-21T03:15:20;9.40;94.30
46816;DHT22;32787;53.316;8.670;2023-02-21T03:20:37;9.30;94.50
46816;DHT22;32787;53.316;8.670;2023-02-21T03:23:04;9.30;94.30
46816;DHT22;32787;53.316;8.670;2023-02-21T03:25:31;9.40;94.30
46816;DHT22;32787;53.316;8.670;2023-02-21T03:27:59;9.40;94.30
46816;DHT22;32787;53.316;8.670;2023-02-21T03:30:25;9.40;94.20
46816;DHT22;32787;53.316;8.670;2023-02-21T03:32:52;9.30;94.20
46816;DHT22;32787;53.316;8.670;2023-02-21T03:35:20;9.40;94.30
46816;DHT22;32787;53.316;8.670;2023-02-21T03:37:48;9.30;94.40
46816;DHT22;32787;53.316;8.670;2023-02-21T03:42:42;9.30;94.30
46816;DHT22;32787;53.316;8.670;2023-02-21T03:45:08;9.40;94.30
46816;DHT22;32787;53.316;8.670;2023-02-21T03:47:35;9.40;94.30
46816;DHT22;32787;53.316;8.670;2023-02-21T03:50:00;9.40;94.30
46816;DHT22;32787;53.316;8.670;2023-02-21T03:52:26;9.30;94.30
46816;DHT22;32787;53.316;8.670;2023-02-21T03:54:52;9.30;94.30
46816;DHT22;32787;53.316;8.670;2023-02-21T03:57:17;9.40;94.40
46816;DHT22;32787;53.316;8.670;2023-02-21T03:59:43;9.30;94.40
46816;DHT22;32787;53.316;8.670;2023-02-21T04:02:09;9.30;94.60
46816;DHT22;32787;53.316;8.670;2023-02-21T04:04:35;9.30;94.70
46816;DHT22;32787;53.316;8.670;2023-02-21T04:07:00;9.30;94.70
46816;DHT22;32787;53.316;8.670;2023-02-21T04:09:26;9.40;94.70
46816;DHT22;32787;53.316;8.670;2023-02-21T04:11:52;9.40;94.70
46816;DHT22;32787;53.316;8.670;2023-02-21T04:14:17;9.30;94.70
46816;DHT22;32787;53.316;8.670;2023-02-21T04:16:43;9.30;94.70
46816;DHT22;32787;53.316;8.670;2023-02-21T04:19:08;9.30;94.60
46816;DHT22;32787;53.316;8.670;2023-02-21T04:21:34;9.30;94.60
46816;DHT22;32787;53.316;8.670;2023-02-21T04:24:00;9.30;94.60
46816;DHT22;32787;53.316;8.670;2023-02-21T04:26:25;9.30;94.70
46816;DHT22;32787;53.316;8.670;2023-02-21T04:28:54;9.30;94.60
46816;DHT22;32787;53.316;8.670;2023-02-21T04:31:21;9.30;94.70
46816;DHT22;32787;53.316;8.670;2023-02-21T04:33:47;9.30;94.60
46816;DHT22;32787;53.316;8.670;2023-02-21T04:36:13;9.30;94.60
46816;DHT22;32787;53.316;8.670;2023-02-21T04:38:38;9.30;94.60
46816;DHT22;32787;53.316;8.670;2023-02-21T04:41:05;9.30;94.50
46816;DHT22;32787;53.316;8.670;2023-02-21T04:43:30;9.30;94.60
46816;DHT22;32787;53.316;8.670;2023-02-21T04:45:56;9.40;94.50
46816;DHT22;32787;53.316;8.670;2023-02-21T04:48:22;9.40;94.50
46816;DHT22;32787;53.316;8.670;2023-02-21T04:50:47;9.30;94.40
46816;DHT22;32787;53.316;8.670;2023-02-21T04:53:13;9.30;94.30
46816;DHT22;32787;53.316;8.670;2023-02-21T04:55:38;9.30;94.50
46816;DHT22;32787;53.316;8.670;2023-02-21T04:58:04;9.30;94.50
46816;DHT22;32787;53.316;8.670;2023-02-21T05:00:30;9.30;94.50
46816;DHT22;32787;53.316;8.670;2023-02-21T05:02:56;9.30;94.50
46816;DHT22;32787;53.316;8.670;2023-02-21T05:05:22;9.30;94.50
46816;DHT22;32787;53.316;8.670;2023-02-21T05:07:47;9.30;94.70
46816;DHT22;32787;53.316;8.670;2023-02-21T05:10:14;9.30;94.70
46816;DHT22;32787;53.316;8.670;2023-02-21T05:12:42;9.20;94.70
46816;DHT22;32787;53.316;8.670;2023-02-21T05:15:08;9.30;94.60
46816;DHT22;32787;53.316;8.670;2023-02-21T05:17:34;9.20;94.60
46816;DHT22;32787;53.316;8.670;2023-02-21T05:20:00;9.20;94.60
46816;DHT22;32787;53.316;8.670;2023-02-21T05:22:26;9.20;94.50
46816;DHT22;32787;53.316;8.670;2023-02-21T05:24:51;9.20;94.50
46816;DHT22;32787;53.316;8.670;2023-02-21T05:27:21;9.20;94.50
46816;DHT22;32787;53.316;8.670;2023-02-21T05:29:51;9.20;94.50
46816;DHT22;32787;53.316;8.670;2023-02-21T05:32:19;9.10;94.30
46816;DHT22;32787;53.316;8.670;2023-02-21T05:34:45;9.10;94.30
46816;DHT22;32787;53.316;8.670;2023-02-21T05:37:16;9.10;94.30
46816;DHT22;32787;53.316;8.670;2023-02-21T05:39:42;9.10;94.20
46816;DHT22;32787;53.316;8.670;2023-02-21T05:42:08;9.20;94.40
46816;DHT22;32787;53.316;8.670;2023-02-21T05:44:34;9.10;94.30
46816;DHT22;32787;53.316;8.670;2023-02-21T05:47:00;9.20;94.20
46816;DHT22;32787;53.316;8.670;2023-02-21T05:49:27;9.10;94.30
46816;DHT22;32787;53.316;8.670;2023-02-21T05:51:53;9.10;94.20
46816;DHT22;32787;53.316;8.670;2023-02-21T05:54:21;9.10;94.30
46816;DHT22;32787;53.316;8.670;2023-02-21T05:56:48;9.10;94.30
46816;DHT22;32787;53.316;8.670;2023-02-21T05:59:15;9.10;94.30
46816;DHT22;32787;53.316;8.670;2023-02-21T06:01:43;9.00;94.30
46816;DHT22;32787;53.316;8.670;2023-02-21T06:04:08;9.10;94.20
46816;DHT22;32787;53.316;8.670;2023-02-21T06:06:35;9.10;94.20
46816;DHT22;32787;53.316;8.670;2023-02-21T06:09:01;9.10;94.30
46816;DHT22;32787;53.316;8.670;2023-02-21T06:11:31;9.10;94.30
46816;DHT22;32787;53.316;8.670;2023-02-21T06:13:59;9.10;94.40
46816;DHT22;32787;53.316;8.670;2023-02-21T06:16:25;9.10;94.30
46816;DHT22;32787;53.316;8.670;2023-02-21T06:18:55;9.20;94.30
46816;DHT22;32787;53.316;8.670;2023-02-21T06:21:20;9.10;94.30
46816;DHT22;32787;53.316;8.670;2023-02-21T06:23:46;9.10;94.20
46816;DHT22;32787;53.316;8.670;2023-02-21T06:26:12;9.10;94.20
46816;DHT22;32787;53.316;8.670;2023-02-21T06:28:38;9.10;94.30
46816;DHT22;32787;53.316;8.670;2023-02-21T06:31:04;9.00;94.30
46816;DHT22;32787;53.316;8.670;2023-02-21T06:33:30;9.10;94.20
46816;DHT22;32787;53.316;8.670;2023-02-21T06:35:56;9.00;94.30
46816;DHT22;32787;53.316;8.670;2023-02-21T06:38:22;9.00;94.30
46816;DHT22;32787;53.316;8.670;2023-02-21T06:40:47;9.00;94.30
46816;DHT22;32787;53.316;8.670;2023-02-21T06:43:13;9.10;94.20
46816;DHT22;32787;53.316;8.670;2023-02-21T06:45:39;9.10;94.20
46816;DHT22;32787;53.316;8.670;2023-02-21T06:48:04;9.00;94.20
46816;DHT22;32787;53.316;8.670;2023-02-21T06:50:30;9.00;94.30
46816;DHT22;32787;53.316;8.670;2023-02-21T06:52:55;8.90;94.20
46816;DHT22;32787;53.316;8.670;2023-02-21T06:55:21;9.00;94.80
46816;DHT22;32787;53.316;8.670;2023-02-21T06:57:48;9.00;95.10
46816;DHT22;32787;53.316;8.670;2023-02-21T07:00:15;9.00;95.10
46816;DHT22;32787;53.316;8.670;2023-02-21T07:02:41;9.10;94.90
46816;DHT22;32787;53.316;8.670;2023-02-21T07:05:07;9.10;94.80
46816;DHT22;32787;53.316;8.670;2023-02-21T07:07:33;9.00;94.80
46816;DHT22;32787;53.316;8.670;2023-02-21T07:09:58;9.10;94.70
46816;DHT22;32787;53.316;8.670;2023-02-21T07:12:24;9.00;94.60
46816;DHT22;32787;53.316;8.670;2023-02-21T07:14:52;9.10;94.70
46816;DHT22;32787;53.316;8.670;2023-02-21T07:17:18;9.00;94.70
46816;DHT22;32787;53.316;8.670;2023-02-21T07:19:44;9.00;94.60
46816;DHT22;32787;53.316;8.670;2023-02-21T07:22:09;9.00;94.70
46816;DHT22;32787;53.316;8.670;2023-02-21T07:24:35;9.10;94.70
46816;DHT22;32787;53.316;8.670;2023-02-21T07:27:01;9.10;94.60
46816;DHT22;32787;53.316;8.670;2023-02-21T07:29:27;9.20;94.50
46816;DHT22;32787;53.316;8.670;2023-02-21T07:31:52;9.10;94.50
46816;DHT22;32787;53.316;8.670;2023-02-21T07:34:18;9.10;94.50
46816;DHT22;32787;53.316;8.670;2023-02-21T07:36:45;9.20;94.30
46816;DHT22;32787;53.316;8.670;2023-02-21T07:39:10;9.20;94.00
46816;DHT22;32787;53.316;8.670;2023-02-21T07:41:36;9.20;94.00
46816;DHT22;32787;53.316;8.670;2023-02-21T07:44:02;9.10;94.00
46816;DHT22;32787;53.316;8.670;2023-02-21T07:46:28;9.10;94.00
46816;DHT22;32787;53.316;8.670;2023-02-21T07:48:54;9.10;93.90
46816;DHT22;32787;53.316;8.670;2023-02-21T07:51:19;9.20;94.00
46816;DHT22;32787;53.316;8.670;2023-02-21T07:53:45;9.20;94.00
46816;DHT22;32787;53.316;8.670;2023-02-21T07:56:11;9.10;93.90
46816;DHT22;32787;53.316;8.670;2023-02-21T07:58:37;9.20;94.10
46816;DHT22;32787;53.316;8.670;2023-02-21T08:01:03;9.20;94.00
46816;DHT22;32787;53.316;8.670;2023-02-21T08:03:30;9.20;94.10
46816;DHT22;32787;53.316;8.670;2023-02-21T08:05:57;9.20;94.00
46816;DHT22;32787;53.316;8.670;2023-02-21T08:08:22;9.30;94.00
46816;DHT22;32787;53.316;8.670;2023-02-21T08:10:48;9.20;94.00
46816;DHT22;32787;53.316;8.670;2023-02-21T08:13:14;9.20;94.00
46816;DHT22;32787;53.316;8.670;2023-02-21T08:15:39;9.30;94.00
46816;DHT22;32787;53.316;8.670;2023-02-21T08:18:05;9.30;94.10
46816;DHT22;32787;53.316;8.670;2023-02-21T08:20:30;9.30;94.00
46816;DHT22;32787;53.316;8.670;2023-02-21T08:22:56;9.30;93.80
46816;DHT22;32787;53.316;8.670;2023-02-21T08:25:22;9.20;93.90
46816;DHT22;32787;53.316;8.670;2023-02-21T08:27:47;9.20;93.90
46816;DHT22;32787;53.316;8.670;2023-02-21T08:30:18;9.20;94.00
46816;DHT22;32787;53.316;8.670;2023-02-21T08:32:44;9.30;94.00
46816;DHT22;32787;53.316;8.670;2023-02-21T08:35:17;9.40;94.00
46816;DHT22;32787;53.316;8.670;2023-02-21T08:37:47;9.40;94.00
46816;DHT22;32787;53.316;8.670;2023-02-21T08:40:13;9.40;94.00
46816;DHT22;32787;53.316;8.670;2023-02-21T08:42:39;9.40;93.90
46816;DHT22;32787;53.316;8.670;2023-02-21T08:45:06;9.50;93.90
46816;DHT22;32787;53.316;8.670;2023-02-21T08:47:36;9.50;93.80
46816;DHT22;32787;53.316;8.670;2023-02-21T08:50:02;9.40;93.70
46816;DHT22;32787;53.316;8.670;2023-02-21T08:52:28;9.40;93.60
46816;DHT22;32787;53.316;8.670;2023-02-21T08:54:53;9.40;93.60
46816;DHT22;32787;53.316;8.670;2023-02-21T08:57:19;9.50;93.60
46816;DHT22;32787;53.316;8.670;2023-02-21T08:59:45;9.60;93.60
46816;DHT22;32787;53.316;8.670;2023-02-21T09:02:15;9.50;93.50
46816;DHT22;32787;53.316;8.670;2023-02-21T09:04:42;9.50;93.40
46816;DHT22;32787;53.316;8.670;2023-02-21T09:07:08;9.50;93.50
46816;DHT22;32787;53.316;8.670;2023-02-21T09:09:37;9.40;93.60
46816;DHT22;32787;53.316;8.670;2023-02-21T09:12:02;9.40;93.70
46816;DHT22;32787;53.316;8.670;2023-02-21T09:14:37;9.40;93.70
46816;DHT22;32787;53.316;8.670;2023-02-21T09:17:03;9.40;93.70
46816;DHT22;32787;53.316;8.670;2023-02-21T09:19:29;9.50;93.80
46816;DHT22;32787;53.316;8.670;2023-02-21T09:21:54;9.60;93.80
46816;DHT22;32787;53.316;8.670;2023-02-21T09:24:20;9.60;93.70
46816;DHT22;32787;53.316;8.670;2023-02-21T09:26:50;9.70;93.70
46816;DHT22;32787;53.316;8.670;2023-02-21T09:29:19;9.60;93.50
46816;DHT22;32787;53.316;8.670;2023-02-21T09:31:45;9.60;93.50
46816;DHT22;32787;53.316;8.670;2023-02-21T09:34:10;9.70;93.60
46816;DHT22;32787;53.316;8.670;2023-02-21T09:36:36;9.70;93.40
46816;DHT22;32787;53.316;8.670;2023-02-21T09:39:02;9.60;93.40
46816;DHT22;32787;53.316;8.670;2023-02-21T09:41:35;9.60;93.40
46816;DHT22;32787;53.316;8.670;2023-02-21T09:44:03;9.60;93.50
46816;DHT22;32787;53.316;8.670;2023-02-21T09:46:39;9.70;93.40
46816;DHT22;32787;53.316;8.670;2023-02-21T09:49:24;9.70;93.40
46816;DHT22;32787;53.316;8.670;2023-02-21T09:51:52;9.80;93.30
46816;DHT22;32787;53.316;8.670;2023-02-21T09:54:38;9.90;93.40
46816;DHT22;32787;53.316;8.670;2023-02-21T09:57:18;10.00;93.40
46816;DHT22;32787;53.316;8.670;2023-02-21T09:59:44;10.00;93.20
46816;DHT22;32787;53.316;8.670;2023-02-21T10:11:01;10.20;92.50
46816;DHT22;32787;53.316;8.670;2023-02-21T10:13:44;10.20;92.50
46816;DHT22;32787;53.316;8.670;2023-02-21T10:16:23;10.30;92.50
46816;DHT22;32787;53.316;8.670;2023-02-21T10:19:04;10.30;92.30
46816;DHT22;32787;53.316;8.670;2023-02-21T10:21:45;10.30;92.20
46816;DHT22;32787;53.316;8.670;2023-02-21T10:24:20;10.20;92.20
46816;DHT22;32787;53.316;8.670;2023-02-21T10:27:16;10.30;92.10
46816;DHT22;32787;53.316;8.670;2023-02-21T10:30:06;10.30;92.10
46816;DHT22;32787;53.316;8.670;2023-02-21T10:32:36;10.30;92.10
46816;DHT22;32787;53.316;8.670;2023-02-21T10:35:02;10.30;91.90
46816;DHT22;32787;53.316;8.670;2023-02-21T10:37:46;10.30;92.00
46816;DHT22;32787;53.316;8.670;2023-02-21T10:40:36;10.30;92.10
46816;DHT22;32787;53.316;8.670;2023-02-21T10:45:35;10.20;91.90
46816;DHT22;32787;53.316;8.670;2023-02-21T10:48:05;10.30;92.10
46816;DHT22;32787;53.316;8.670;2023-02-21T10:53:31;10.30;91.80
46816;DHT22;32787;53.316;8.670;2023-02-21T10:58:48;10.30;91.80
46816;DHT22;32787;53.316;8.670;2023-02-21T11:01:29;10.30;91.70
46816;DHT22;32787;53.316;8.670;2023-02-21T11:04:01;10.40;91.80
46816;DHT22;32787;53.316;8.670;2023-02-21T11:08:56;10.40;91.60
46816;DHT22;32787;53.316;8.670;2023-02-21T11:16:41;10.40;91.40
46816;DHT22;32787;53.316;8.670;2023-02-21T11:19:11;10.40;91.30
46816;DHT22;32787;53.316;8.670;2023-02-21T11:21:37;10.60;91.40
46816;DHT22;32787;53.316;8.670;2023-02-21T11:24:04;10.50;91.00
46816;DHT22;32787;53.316;8.670;2023-02-21T11:26:46;10.40;91.10
46816;DHT22;32787;53.316;8.670;2023-02-21T11:29:20;10.40;91.30
46816;DHT22;32787;53.316;8.670;2023-02-21T11:31:48;10.60;91.50
46816;DHT22;32787;53.316;8.670;2023-02-21T11:34:16;10.40;91.10
46816;DHT22;32787;53.316;8.670;2023-02-21T11:36:45;10.40;91.20
46816;DHT22;32787;53.316;8.670;2023-02-21T11:42:23;10.40;91.00
46816;DHT22;32787;53.316;8.670;2023-02-21T11:44:50;10.60;91.20
46816;DHT22;32787;53.316;8.670;2023-02-21T11:47:38;10.60;91.00
46816;DHT22;32787;53.316;8.670;2023-02-21T11:52:48;10.60;90.90
46816;DHT22;32787;53.316;8.670;2023-02-21T11:55:20;10.80;91.10
46816;DHT22;32787;53.316;8.670;2023-02-21T12:00:44;10.80;90.60
46816;DHT22;32787;53.316;8.670;2023-02-21T12:05:58;10.40;90.20
46816;DHT22;32787;53.316;8.670;2023-02-21T12:08:46;10.40;90.60
46816;DHT22;32787;53.316;8.670;2023-02-21T12:11:41;10.50;90.70
46816;DHT22;32787;53.316;8.670;2023-02-21T12:14:18;10.60;90.70
46816;DHT22;32787;53.316;8.670;2023-02-21T12:19:37;10.90;90.30
46816;DHT22;32787;53.316;8.670;2023-02-21T12:27:54;10.80;89.80
46816;DHT22;32787;53.316;8.670;2023-02-21T12:33:02;10.60;90.10
46816;DHT22;32787;53.316;8.670;2023-02-21T12:44:14;10.50;91.10
46816;DHT22;32787;53.316;8.670;2023-02-21T12:49:43;10.70;91.70
46816;DHT22;32787;53.316;8.670;2023-02-21T12:57:44;10.70;91.30
46816;DHT22;32787;53.316;8.670;2023-02-21T13:00:16;10.60;91.30
46816;DHT22;32787;53.316;8.670;2023-02-21T13:03:08;10.40;91.00
46816;DHT22;32787;53.316;8.670;2023-02-21T13:05:44;10.50;91.30
46816;DHT22;32787;53.316;8.670;2023-02-21T13:08:18;10.50;91.30
46816;DHT22;32787;53.316;8.670;2023-02-21T13:11:13;10.40;91.30
46816;DHT22;32787;53.316;8.670;2023-02-21T13:13:39;10.40;91.30
46816;DHT22;32787;53.316;8.670;2023-02-21T13:16:08;10.50;91.10
46816;DHT22;32787;53.316;8.670;2023-02-21T13:18:44;10.50;91.30
46816;DHT22;32787;53.316;8.670;2023-02-21T13:21:21;10.40;91.10
46816;DHT22;32787;53.316;8.670;2023-02-21T13:29:33;10.50;91.40
46816;DHT22;32787;53.316;8.670;2023-02-21T13:34:45;10.60;90.90
46816;DHT22;32787;53.316;8.670;2023-02-21T13:37:21;10.50;90.70
46816;DHT22;32787;53.316;8.670;2023-02-21T13:39:54;10.50;90.90
46816;DHT22;32787;53.316;8.670;2023-02-21T13:42:24;10.60;90.90
46816;DHT22;32787;53.316;8.670;2023-02-21T13:45:36;10.60;90.70
46816;DHT22;32787;53.316;8.670;2023-02-21T13:54:10;10.60;90.50
46816;DHT22;32787;53.316;8.670;2023-02-21T13:58:45;10.70;90.50
46816;DHT22;32787;53.316;8.670;2023-02-21T14:01:39;10.80;90.10
46816;DHT22;32787;53.316;8.670;2023-02-21T14:10:22;11.10;89.70
46816;DHT22;32787;53.316;8.670;2023-02-21T14:12:57;11.10;89.60
46816;DHT22;32787;53.316;8.670;2023-02-21T14:15:39;11.00;89.50
46816;DHT22;32787;53.316;8.670;2023-02-21T14:18:12;10.90;89.60
46816;DHT22;32787;53.316;8.670;2023-02-21T14:20:38;10.90;89.40
46816;DHT22;32787;53.316;8.670;2023-02-21T14:23:04;11.00;89.70
46816;DHT22;32787;53.316;8.670;2023-02-21T14:25:33;11.00;89.90
46816;DHT22;32787;53.316;8.670;2023-02-21T14:27:58;11.00;89.90
46816;DHT22;32787;53.316;8.670;2023-02-21T14:30:30;11.10;89.40
46816;DHT22;32787;53.316;8.670;2023-02-21T14:33:10;11.10;89.20
46816;DHT22;32787;53.316;8.670;2023-02-21T14:35:45;11.00;89.20
46816;DHT22;32787;53.316;8.670;2023-02-21T14:38:19;11.20;89.50
46816;DHT22;32787;53.316;8.670;2023-02-21T14:49:28;11.40;89.60
46816;DHT22;32787;53.316;8.670;2023-02-21T14:52:35;11.40;89.20
46816;DHT22;32787;53.316;8.670;2023-02-21T15:10:12;11.00;89.00
46816;DHT22;32787;53.316;8.670;2023-02-21T15:12:45;11.10;89.20
46816;DHT22;32787;53.316;8.670;2023-02-21T15:15:15;11.10;89.10
46816;DHT22;32787;53.316;8.670;2023-02-21T15:17:42;11.30;89.00
46816;DHT22;32787;53.316;8.670;2023-02-21T15:20:16;11.30;88.70
46816;DHT22;32787;53.316;8.670;2023-02-21T15:22:42;11.30;88.70
46816;DHT22;32787;53.316;8.670;2023-02-21T15:27:55;11.20;89.00
46816;DHT22;32787;53.316;8.670;2023-02-21T15:30:27;11.30;88.70
46816;DHT22;32787;53.316;8.670;2023-02-21T15:33:01;11.10;89.00
46816;DHT22;32787;53.316;8.670;2023-02-21T15:35:33;11.10;89.30
46816;DHT22;32787;53.316;8.670;2023-02-21T15:37:59;11.10;89.30
46816;DHT22;32787;53.316;8.670;2023-02-21T15:40:27;11.00;89.10
46816;DHT22;32787;53.316;8.670;2023-02-21T15:42:54;11.00;88.90
46816;DHT22;32787;53.316;8.670;2023-02-21T15:45:40;11.00;88.90
46816;DHT22;32787;53.316;8.670;2023-02-21T15:48:08;11.00;89.20
46816;DHT22;32787;53.316;8.670;2023-02-21T15:50:38;11.00;89.30
46816;DHT22;32787;53.316;8.670;2023-02-21T15:53:17;11.10;89.20
46816;DHT22;32787;53.316;8.670;2023-02-21T15:55:44;11.00;89.40
46816;DHT22;32787;53.316;8.670;2023-02-21T15:58:18;10.90;89.30
46816;DHT22;32787;53.316;8.670;2023-02-21T16:01:18;10.80;89.40
46816;DHT22;32787;53.316;8.670;2023-02-21T16:03:44;10.90;89.40
46816;DHT22;32787;53.316;8.670;2023-02-21T16:06:24;10.80;89.60
46816;DHT22;32787;53.316;8.670;2023-02-21T16:17:34;10.70;89.90
46816;DHT22;32787;53.316;8.670;2023-02-21T16:22:39;10.50;90.50
46816;DHT22;32787;53.316;8.670;2023-02-21T16:25:18;10.50;90.50
46816;DHT22;32787;53.316;8.670;2023-02-21T16:27:48;10.50;90.60
46816;DHT22;32787;53.316;8.670;2023-02-21T16:30:25;10.60;90.80
46816;DHT22;32787;53.316;8.670;2023-02-21T16:32:54;10.60;90.70
46816;DHT22;32787;53.316;8.670;2023-02-21T16:35:24;10.70;89.90
46816;DHT22;32787;53.316;8.670;2023-02-21T16:37:52;10.60;90.40
46816;DHT22;32787;53.316;8.670;2023-02-21T16:40:22;10.50;90.20
46816;DHT22;32787;53.316;8.670;2023-02-21T16:42:50;10.50;90.60
46816;DHT22;32787;53.316;8.670;2023-02-21T16:45:16;10.50;90.30
46816;DHT22;32787;53.316;8.670;2023-02-21T16:47:42;10.60;90.20
46816;DHT22;32787;53.316;8.670;2023-02-21T16:50:34;10.60;90.10
46816;DHT22;32787;53.316;8.670;2023-02-21T16:53:01;10.70;90.10
46816;DHT22;32787;53.316;8.670;2023-02-21T16:55:28;10.70;89.80
46816;DHT22;32787;53.316;8.670;2023-02-21T16:57:57;10.70;89.70
46816;DHT22;32787;53.316;8.670;2023-02-21T17:00:23;10.70;89.50
46816;DHT22;32787;53.316;8.670;2023-02-21T17:02:50;10.80;89.50
46816;DHT22;32787;53.316;8.670;2023-02-21T17:05:17;10.70;89.30
46816;DHT22;32787;53.316;8.670;2023-02-21T17:07:43;10.70;89.50
46816;DHT22;32787;53.316;8.670;2023-02-21T17:10:09;10.70;89.60
46816;DHT22;32787;53.316;8.670;2023-02-21T17:12:35;10.70;89.30
46816;DHT22;32787;53.316;8.670;2023-02-21T17:15:01;10.70;89.60
46816;DHT22;32787;53.316;8.670;2023-02-21T17:17:27;10.50;89.70
46816;DHT22;32787;53.316;8.670;2023-02-21T17:19:53;10.60;89.50
46816;DHT22;32787;53.316;8.670;2023-02-21T17:22:18;10.40;90.00
46816;DHT22;32787;53.316;8.670;2023-02-21T17:24:44;10.50;89.90
46816;DHT22;32787;53.316;8.670;2023-02-21T17:27:10;10.40;89.90
46816;DHT22;32787;53.316;8.670;2023-02-21T17:29:35;10.40;90.00
46816;DHT22;32787;53.316;8.670;2023-02-21T17:32:02;10.50;90.00
46816;DHT22;32787;53.316;8.670;2023-02-21T17:34:32;10.50;90.00
46816;DHT22;32787;53.316;8.670;2023-02-21T17:36:58;10.60;89.90
46816;DHT22;32787;53.316;8.670;2023-02-21T17:39:24;10.60;89.70
46816;DHT22;32787;53.316;8.670;2023-02-21T17:41:50;10.60;89.80
46816;DHT22;32787;53.316;8.670;2023-02-21T17:44:16;10.40;89.80
46816;DHT22;32787;53.316;8.670;2023-02-21T17:46:51;10.60;89.70
46816;DHT22;32787;53.316;8.670;2023-02-21T17:49:18;10.40;90.10
46816;DHT22;32787;53.316;8.670;2023-02-21T17:51:45;10.40;89.90
46816;DHT22;32787;53.316;8.670;2023-02-21T17:54:18;10.30;89.90
46816;DHT22;32787;53.316;8.670;2023-02-21T17:56:43;10.30;90.20
46816;DHT22;32787;53.316;8.670;2023-02-21T17:59:09;10.30;90.70
46816;DHT22;32787;53.316;8.670;2023-02-21T18:01:35;10.30;90.80
46816;DHT22;32787;53.316;8.670;2023-02-21T18:04:00;10.30;90.60
46816;DHT22;32787;53.316;8.670;2023-02-21T18:06:27;10.20;90.70
46816;DHT22;32787;53.316;8.670;2023-02-21T18:08:54;10.30;90.80
46816;DHT22;32787;53.316;8.670;2023-02-21T18:11:21;10.40;90.60
46816;DHT22;32787;53.316;8.670;2023-02-21T18:13:47;10.40;90.60
46816;DHT22;32787;53.316;8.670;2023-02-21T18:16:13;10.40;90.40
46816;DHT22;32787;53.316;8.670;2023-02-21T18:18:39;10.40;90.20
46816;DHT22;32787;53.316;8.670;2023-02-21T18:21:05;10.40;90.20
46816;DHT22;32787;53.316;8.670;2023-02-21T18:23:32;10.30;90.50
46816;DHT22;32787;53.316;8.670;2023-02-21T18:25:58;10.30;90.30
46816;DHT22;32787;53.316;8.670;2023-02-21T18:28:25;10.30;90.40
46816;DHT22;32787;53.316;8.670;2023-02-21T18:30:51;10.30;90.10
46816;DHT22;32787;53.316;8.670;2023-02-21T18:33:18;10.20;90.30
46816;DHT22;32787;53.316;8.670;2023-02-21T18:35:44;10.20;90.60
46816;DHT22;32787;53.316;8.670;2023-02-21T18:38:10;10.20;90.60
46816;DHT22;32787;53.316;8.670;2023-02-21T18:40:37;10.30;90.60
46816;DHT22;32787;53.316;8.670;2023-02-21T18:43:26;10.20;90.50
46816;DHT22;32787;53.316;8.670;2023-02-21T18:45:54;10.20;90.80
46816;DHT22;32787;53.316;8.670;2023-02-21T18:48:21;10.10;90.70
46816;DHT22;32787;53.316;8.670;2023-02-21T18:50:47;10.10;91.00